Sao Bernardo do Campo, Brazil
Current Conditions -  °F | °C
As of 7:00 PM on Friday 24 Oct 2014 (Local Time) from SBSP Reporting Station
Haze Haze  
Wind Chill: 64°   Ceiling: 300
Heat Index: 64°   Visibility: 0.93mi
Dew Point: 59°   Wind: 13mph
Humidity: 83%   Direction: 150°SSE
Pressure: 30"   Gusts: NA
Location:  23.71°S, 46.54°W
Report Text: SBSP 242100Z 15011KT 1500 BR SCT001 OVC003 18/15 Q1016
Loading
Personal Weather Stations






























Interactive Weather Map
Tropical Storm Tracking
New forecast layout! Learn more

10-Day Weather Forecast

Advertisements
Track Severe Weather on mobile